• Join FlightAware (Why Join?)
  • Login
  • US Flag 
03:37AM EDT


 

Airport Tracker/Info


-or-


 

Live Flight TrackerFlight Track Log ✈ GGA1 ✈ 17-Apr-2013 ✈ KBHM - KFTY

Flight Track Log - Related Links

Times and Time Zones

All times are in EDT time to prevent confusion due to time zone crossing. See the GGA1 flight status page for this flight to view local times or setup timezone preferences in your user account.

Time Position Orientation Groundspeed Altitude Reporting Facility
EDT Latitude Longitude Course Direction KTS MPH feet Rate Location/Type
05:00PM 33.5714 -86.7939 282° West 165 190 2,400  Level Atlanta Center
05:01PM 33.6253 -86.8156 341° North 212 244 4,400 1,680 Climbing Atlanta Center
05:02PM 33.6597 -86.7617 52° Northeast 216 249 6,000 1,560 Climbing Atlanta Center
05:03PM 33.6947 -86.6903 59° Northeast 223 257 7,800 1,560 Climbing Atlanta Center
05:04PM 33.7253 -86.6239 61° Northeast 228 262 9,400 1,080 Climbing Atlanta Center
05:05PM 33.7519 -86.5472 67° East 228 262 10,000 840 Climbing Atlanta Center
05:06PM 33.7828 -86.4706 64° Northeast 240 276 11,100 1,620 Climbing Atlanta Center
05:07PM 33.8153 -86.4067 59° Northeast 239 275 13,300 1,800 Climbing Atlanta Center
05:08PM 33.8250 -86.3419 80° East 213 245 14,800 900 Climbing Atlanta Center
05:09PM 33.7972 -86.2586 112° Southeast 229 264 15,200 60 Climbing Atlanta Center
05:10PM 33.7675 -86.1703 112° Southeast 251 289 15,000 -120 Descending Atlanta Center
05:11PM 33.7461 -86.0825 106° East 271 312 15,000  Level Atlanta Center
05:12PM 33.7183 -85.9944 111° Southeast 277 319 15,000  Level Atlanta Center
05:13PM 33.6925 -85.9064 109° East 277 319 15,000  Level Atlanta Center
05:14PM 33.6644 -85.8208 111° Southeast 272 313 15,000 -180 Level Atlanta Center
05:15PM 33.6386 -85.7306 109° East 277 319 14,700 -600 Descending Atlanta Center
05:16PM 33.6189 -85.6378 104° East 282 325 13,900 -840 Descending Atlanta Center
05:17PM 33.5928 -85.5575 111° Southeast 282 325 13,100 -780 Descending Atlanta Center
05:18PM 33.5708 -85.4700 107° East 282 325 12,400 1,920 Descending Atlanta Center
05:19PM 33.5950 -85.3856 71° East 263 303 17,000 2,280 Climbing Atlanta Center
05:20PM 33.6414 -85.3189 50° Northeast 240 276 17,000  Level Atlanta Center
05:21PM 33.6881 -85.2522 50° Northeast 256 295 17,000  Level Atlanta Center
05:22PM 33.7056 -85.1725 75° East 244 281 17,000  Level Atlanta Center
05:23PM 33.7000 -85.0900 95° East 249 287 17,000  Level Atlanta Center
05:24PM 33.7050 -84.9978 86° East 249 287 17,000  Level Atlanta Center
05:25PM 33.7203 -84.9181 77° East 249 287 17,000  Level Atlanta Center
05:26PM 33.7311 -84.8381 81° East 243 280 17,000  Level Atlanta Center
05:27PM 33.7442 -84.7558 79° East 238 274 17,000 -7,440 Level Atlanta Center
05:28PM 33.7500 -84.6833 84° East 246 283 2,500 -7,800 Descending Atlanta TRACON
05:29PM 33.7667 -84.6000 76° East 250 288 1,800 -540 Descending Atlanta TRACON
05:30PM 33.7833 -84.5333 73° East 205 236 1,500 -300 Descending Atlanta TRACON
05:32PM 33.7791 -84.5214 140° Southeast  Level Estimated
05:39PM 33.7791 -84.5214 140° Southeast  Level Estimated
05:40PM 33.7791 -84.5214 140° Southeast  Level Estimated
05:41PM 33.7791 -84.5214 140° Southeast  Level Estimated